createdAt,value
2023-03-26T00:00:00.181Z,11.31
2023-03-26T00:01:39.884Z,11.28
2023-03-26T00:03:19.652Z,11.27
2023-03-26T00:04:59.417Z,11.26
2023-03-26T00:06:39.242Z,11.27
2023-03-26T00:08:18.953Z,11.25
2023-03-26T00:09:58.779Z,11.27
2023-03-26T00:11:38.483Z,11.25
2023-03-26T00:13:18.264Z,11.23
2023-03-26T00:14:58.050Z,11.24
2023-03-26T00:16:37.798Z,11.23
2023-03-26T00:18:17.553Z,11.21
2023-03-26T00:19:57.333Z,11.21
2023-03-26T00:21:37.107Z,11.21
2023-03-26T00:23:16.872Z,11.2
2023-03-26T00:24:56.676Z,11.2
2023-03-26T00:26:36.396Z,11.2
2023-03-26T00:28:16.163Z,11.18
2023-03-26T00:29:55.928Z,11.2
2023-03-26T00:31:35.713Z,11.21
2023-03-26T00:33:15.460Z,11.2
2023-03-26T00:34:55.394Z,11.2
2023-03-26T00:36:35.033Z,11.19
2023-03-26T00:38:14.824Z,11.19
2023-03-26T00:39:54.556Z,11.16
2023-03-26T00:41:34.357Z,11.18
2023-03-26T00:43:14.067Z,11.14
2023-03-26T00:44:53.876Z,11.13
2023-03-26T00:46:33.733Z,11.14
2023-03-26T00:48:13.371Z,11.16
2023-03-26T00:49:53.258Z,11.14
2023-03-26T00:51:33.028Z,11.15
2023-03-26T00:53:12.672Z,11.12
2023-03-26T00:54:52.454Z,11.12
2023-03-26T00:56:32.292Z,11.13
2023-03-26T00:58:11.975Z,11.1
2023-03-26T00:59:51.753Z,11.13
2023-03-26T01:01:31.576Z,11.1
2023-03-26T01:03:11.360Z,11.09
2023-03-26T01:04:51.044Z,11.08
2023-03-26T01:06:30.849Z,11.08
2023-03-26T01:08:10.586Z,11.09
2023-03-26T01:09:50.430Z,11.1
2023-03-26T01:11:30.235Z,11.1
2023-03-26T01:13:09.906Z,11.09
2023-03-26T01:14:49.714Z,11.06
2023-03-26T01:16:29.469Z,11.05
2023-03-26T01:18:09.325Z,11.05
2023-03-26T01:19:49.023Z,11.07
2023-03-26T01:21:28.726Z,11.07
2023-03-26T01:23:08.605Z,11.04
2023-03-26T01:24:48.272Z,11.06
2023-03-26T01:26:28.010Z,11.02
2023-03-26T01:28:07.804Z,11.02
2023-03-26T01:29:47.561Z,11.01
2023-03-26T01:31:27.382Z,11.04
2023-03-26T01:33:07.089Z,11.01
2023-03-26T01:34:46.889Z,11.02
2023-03-26T01:36:26.708Z,10.98
2023-03-26T01:38:06.429Z,11.02
2023-03-26T01:39:46.186Z,10.98
2023-03-26T01:41:26.023Z,10.98
2023-03-26T01:43:05.693Z,10.98
2023-03-26T01:44:45.471Z,10.96
2023-03-26T01:46:25.250Z,10.99
2023-03-26T01:48:05.007Z,10.97
2023-03-26T01:49:44.773Z,10.96
2023-03-26T01:51:24.547Z,10.97
2023-03-26T01:53:04.319Z,10.95
2023-03-26T01:54:44.064Z,10.94
2023-03-26T01:56:23.835Z,10.94
2023-03-26T01:58:03.610Z,10.92
2023-03-26T01:59:43.390Z,10.93
2023-03-26T02:01:23.133Z,10.94
2023-03-26T02:03:02.910Z,10.91
2023-03-26T02:04:42.663Z,10.9
2023-03-26T02:06:22.443Z,10.9
2023-03-26T02:08:02.226Z,10.93
2023-03-26T02:09:41.969Z,10.9
2023-03-26T02:11:21.752Z,10.91
2023-03-26T02:13:01.516Z,10.9
2023-03-26T02:14:41.268Z,10.86
2023-03-26T02:16:21.044Z,10.86
2023-03-26T02:18:00.807Z,10.85
2023-03-26T02:19:40.594Z,10.86
2023-03-26T02:21:20.335Z,10.86
2023-03-26T02:23:00.117Z,10.85
2023-03-26T02:24:39.882Z,10.84
2023-03-26T02:26:19.649Z,10.82
2023-03-26T02:27:59.419Z,10.83
2023-03-26T02:29:39.179Z,10.8
2023-03-26T02:31:18.946Z,10.8
2023-03-26T02:32:58.710Z,10.8
2023-03-26T02:34:38.477Z,10.81
2023-03-26T02:36:18.245Z,10.78
2023-03-26T02:37:58.008Z,10.78
2023-03-26T02:39:37.820Z,10.79
2023-03-26T02:41:17.554Z,10.75
2023-03-26T02:42:57.320Z,10.76
2023-03-26T02:44:37.092Z,10.74
2023-03-26T02:46:16.852Z,10.75
2023-03-26T02:47:56.626Z,10.72
2023-03-26T02:49:36.388Z,10.7
2023-03-26T02:51:16.153Z,10.73
2023-03-26T02:52:55.962Z,10.69
2023-03-26T02:54:35.696Z,10.7
2023-03-26T02:56:15.452Z,10.71
2023-03-26T02:57:55.235Z,10.67
2023-03-26T02:59:34.998Z,10.67
2023-03-26T03:01:14.757Z,10.66
2023-03-26T03:02:54.526Z,10.65
2023-03-26T03:04:34.310Z,10.65
2023-03-26T03:06:14.045Z,10.65
2023-03-26T03:07:53.839Z,10.65
2023-03-26T03:09:33.597Z,10.67
2023-03-26T03:11:13.345Z,10.64
2023-03-26T03:12:53.143Z,10.63
2023-03-26T03:14:32.896Z,10.64
2023-03-26T03:16:12.667Z,10.63
2023-03-26T03:17:52.438Z,10.61
2023-03-26T03:19:32.209Z,10.6
2023-03-26T03:21:11.965Z,10.58
2023-03-26T03:22:51.725Z,10.57
2023-03-26T03:24:31.501Z,10.57
2023-03-26T03:26:11.270Z,10.58
2023-03-26T03:27:51.027Z,10.57
2023-03-26T03:29:30.812Z,10.56
2023-03-26T03:31:10.569Z,10.56
2023-03-26T03:32:50.335Z,10.56
2023-03-26T03:34:30.115Z,10.54
2023-03-26T03:36:09.869Z,10.52
2023-03-26T03:37:49.653Z,10.52
2023-03-26T03:39:29.419Z,10.52
2023-03-26T03:41:09.184Z,10.53
2023-03-26T03:42:48.966Z,10.49
2023-03-26T03:44:28.699Z,10.51
2023-03-26T03:46:08.476Z,10.53
2023-03-26T03:47:48.263Z,10.5
2023-03-26T03:49:28.020Z,10.49
2023-03-26T03:51:07.780Z,10.49
2023-03-26T03:52:47.535Z,10.49
2023-03-26T03:54:27.305Z,10.5
2023-03-26T03:56:07.118Z,10.47
2023-03-26T03:57:46.842Z,10.5
2023-03-26T03:59:26.614Z,10.47
2023-03-26T04:01:06.402Z,10.45
2023-03-26T04:02:46.164Z,10.45
2023-03-26T04:04:25.949Z,10.48
2023-03-26T04:06:05.690Z,10.47
2023-03-26T04:07:45.448Z,10.44
2023-03-26T04:09:25.231Z,10.47
2023-03-26T04:11:04.985Z,10.43
2023-03-26T04:12:44.746Z,10.43
2023-03-26T04:14:24.525Z,10.43
2023-03-26T04:16:04.282Z,10.42
2023-03-26T04:17:44.065Z,10.45
2023-03-26T04:19:23.819Z,10.41
2023-03-26T04:21:03.598Z,10.45
2023-03-26T04:22:43.373Z,10.44
2023-03-26T04:24:23.121Z,10.43
2023-03-26T04:26:03.026Z,10.43
2023-03-26T04:27:42.676Z,10.42
2023-03-26T04:29:22.436Z,10.41
2023-03-26T04:31:02.185Z,10.39
2023-03-26T04:32:41.953Z,10.4
2023-03-26T04:34:21.716Z,10.42
2023-03-26T04:36:01.505Z,10.42
2023-03-26T04:37:41.265Z,10.42
2023-03-26T04:39:21.092Z,10.41
2023-03-26T04:41:00.786Z,10.4
2023-03-26T04:42:40.583Z,10.42
2023-03-26T04:44:20.318Z,10.46
2023-03-26T04:46:00.084Z,10.51
2023-03-26T04:47:39.868Z,10.53
2023-03-26T04:49:19.639Z,10.53
2023-03-26T04:50:59.453Z,10.52
2023-03-26T04:52:39.178Z,10.6
2023-03-26T04:54:18.958Z,10.58
2023-03-26T04:55:58.687Z,10.62
2023-03-26T04:57:38.465Z,10.62
2023-03-26T04:59:18.261Z,10.65
2023-03-26T05:00:58.009Z,10.67
2023-03-26T05:02:37.778Z,10.65
2023-03-26T05:04:17.539Z,10.7
2023-03-26T05:05:57.302Z,10.69
2023-03-26T05:07:37.189Z,10.73
2023-03-26T05:09:16.831Z,10.76
2023-03-26T05:10:56.600Z,10.74
2023-03-26T05:12:36.379Z,10.77
2023-03-26T05:14:16.146Z,10.8
2023-03-26T05:15:55.996Z,10.79
2023-03-26T05:17:35.677Z,10.79
2023-03-26T05:19:15.449Z,10.82
2023-03-26T05:20:55.222Z,10.82
2023-03-26T05:22:34.975Z,10.81
2023-03-26T05:24:14.748Z,10.81
2023-03-26T05:25:54.518Z,10.83
2023-03-26T05:27:34.278Z,10.87
2023-03-26T05:29:14.072Z,10.89
2023-03-26T05:30:53.824Z,10.89
2023-03-26T05:32:33.589Z,10.88
2023-03-26T05:34:13.352Z,10.92
2023-03-26T05:35:53.197Z,10.9
2023-03-26T05:37:32.894Z,10.91
2023-03-26T05:39:12.672Z,10.93
2023-03-26T05:40:52.431Z,10.92
2023-03-26T05:42:32.226Z,10.95
2023-03-26T05:44:11.980Z,10.95
2023-03-26T05:45:51.761Z,10.96
2023-03-26T05:47:31.515Z,10.98
2023-03-26T05:49:11.341Z,10.98
2023-03-26T05:50:51.064Z,10.99
2023-03-26T05:52:30.846Z,11.01
2023-03-26T05:54:10.606Z,11.01
2023-03-26T05:55:50.381Z,11.03
2023-03-26T05:57:30.154Z,11.03
2023-03-26T05:59:09.916Z,11.06
2023-03-26T06:00:49.686Z,11.03
2023-03-26T06:02:29.460Z,11.05
2023-03-26T06:04:09.224Z,11.1
2023-03-26T06:05:49.001Z,11.1
2023-03-26T06:07:28.777Z,11.1
2023-03-26T06:09:08.541Z,11.09
2023-03-26T06:10:48.315Z,11.12
2023-03-26T06:12:28.108Z,11.12
2023-03-26T06:14:07.830Z,11.14
2023-03-26T06:15:47.616Z,11.14
2023-03-26T06:17:27.395Z,11.13
2023-03-26T06:19:07.185Z,11.15
2023-03-26T06:20:46.932Z,11.14
2023-03-26T06:22:26.711Z,11.18
2023-03-26T06:24:06.481Z,11.18
2023-03-26T06:25:46.232Z,11.18
2023-03-26T06:27:26.012Z,11.21
2023-03-26T06:29:05.770Z,11.19
2023-03-26T06:30:45.551Z,11.19
2023-03-26T06:32:25.326Z,11.2
2023-03-26T06:34:05.095Z,11.2
2023-03-26T06:35:44.859Z,11.21
2023-03-26T06:37:24.677Z,11.23
2023-03-26T06:39:04.408Z,11.25
2023-03-26T06:40:44.164Z,11.24
2023-03-26T06:42:24.011Z,11.28
2023-03-26T06:44:03.720Z,11.37
2023-03-26T06:45:43.487Z,11.49
2023-03-26T06:47:23.251Z,11.57
2023-03-26T06:49:03.020Z,11.65
2023-03-26T06:50:42.802Z,11.7
2023-03-26T06:52:22.558Z,11.76
2023-03-26T06:54:02.370Z,11.81
2023-03-26T06:55:42.100Z,11.84
2023-03-26T06:57:21.873Z,11.88
2023-03-26T06:59:01.657Z,11.86
2023-03-26T07:00:41.406Z,11.88
2023-03-26T07:02:21.185Z,11.87
2023-03-26T07:04:01.112Z,11.91
2023-03-26T07:05:40.791Z,11.89
2023-03-26T07:07:20.496Z,11.93
2023-03-26T07:09:00.459Z,11.95
2023-03-26T07:10:40.115Z,11.94
2023-03-26T07:12:19.815Z,11.94
2023-03-26T07:13:59.579Z,11.92
2023-03-26T07:15:39.351Z,12
2023-03-26T07:17:19.125Z,12.01
2023-03-26T07:18:58.925Z,11.99
2023-03-26T07:20:38.667Z,12.02
2023-03-26T07:22:18.424Z,12.03
2023-03-26T07:23:58.302Z,12.02
2023-03-26T07:25:38.031Z,12.04
2023-03-26T07:27:17.774Z,12.04
2023-03-26T07:28:57.511Z,12.05
2023-03-26T07:30:37.287Z,12.06
2023-03-26T07:32:17.079Z,12.1
2023-03-26T07:33:56.811Z,12.11
2023-03-26T07:35:36.596Z,12.14
2023-03-26T07:37:16.384Z,12.14
2023-03-26T07:38:56.186Z,12.15
2023-03-26T07:40:35.916Z,12.16
2023-03-26T07:42:15.735Z,12.21
2023-03-26T07:43:55.509Z,12.24
2023-03-26T07:45:35.200Z,12.22
2023-03-26T07:47:14.989Z,12.24
2023-03-26T07:48:54.821Z,12.24
2023-03-26T07:50:34.521Z,12.28
2023-03-26T07:52:14.318Z,12.32
2023-03-26T07:53:54.142Z,12.32
2023-03-26T07:55:33.870Z,12.34
2023-03-26T07:57:13.598Z,12.32
2023-03-26T07:58:53.403Z,12.36
2023-03-26T08:00:33.150Z,12.36
2023-03-26T08:02:12.914Z,12.41
2023-03-26T08:03:52.697Z,12.39
2023-03-26T08:05:32.608Z,12.4
2023-03-26T08:07:12.228Z,12.44
2023-03-26T08:08:52.009Z,12.45
2023-03-26T08:10:31.775Z,12.43
2023-03-26T08:12:11.543Z,12.45
2023-03-26T08:13:51.304Z,12.48
2023-03-26T08:15:31.072Z,12.49
2023-03-26T08:17:10.931Z,12.47
2023-03-26T08:18:50.622Z,12.47
2023-03-26T08:20:30.393Z,12.48
2023-03-26T08:22:10.165Z,12.47
2023-03-26T08:23:49.939Z,12.48
2023-03-26T08:25:29.698Z,12.53
2023-03-26T08:27:09.559Z,12.53
2023-03-26T08:28:49.244Z,12.53
2023-03-26T08:30:29.015Z,12.53
2023-03-26T08:32:08.782Z,12.54
2023-03-26T08:33:48.557Z,12.58
2023-03-26T08:35:28.416Z,12.56
2023-03-26T08:37:08.101Z,12.59
2023-03-26T08:38:48.059Z,12.57
2023-03-26T08:40:27.624Z,12.6
2023-03-26T08:42:07.407Z,12.61
2023-03-26T08:43:47.163Z,12.62
2023-03-26T08:45:26.931Z,12.58
2023-03-26T08:47:06.738Z,12.62
2023-03-26T08:48:46.476Z,12.59
2023-03-26T08:50:26.251Z,12.61
2023-03-26T08:52:06.067Z,12.62
2023-03-26T08:53:45.812Z,12.66
2023-03-26T08:55:25.576Z,12.64
2023-03-26T08:57:05.344Z,12.68
2023-03-26T08:58:45.225Z,12.66
2023-03-26T09:00:24.869Z,12.64
2023-03-26T09:02:04.783Z,12.68
2023-03-26T09:03:44.574Z,12.67
2023-03-26T09:05:24.263Z,12.66
2023-03-26T09:07:04.044Z,12.69
2023-03-26T09:08:43.736Z,12.71
2023-03-26T09:10:23.503Z,12.7
2023-03-26T09:12:03.378Z,12.7
2023-03-26T09:13:43.041Z,12.71
2023-03-26T09:15:22.827Z,12.68
2023-03-26T09:17:02.584Z,12.71
2023-03-26T09:18:42.342Z,12.7
2023-03-26T09:20:22.109Z,12.73
2023-03-26T09:22:01.990Z,12.72
2023-03-26T09:23:41.733Z,12.77
2023-03-26T09:25:21.429Z,12.74
2023-03-26T09:27:01.217Z,12.77
2023-03-26T09:28:40.975Z,12.77
2023-03-26T09:30:20.761Z,12.78
2023-03-26T09:32:00.532Z,12.81
2023-03-26T09:33:40.285Z,12.81
2023-03-26T09:35:20.055Z,12.84
2023-03-26T09:36:59.833Z,12.83
2023-03-26T09:38:39.587Z,12.85
2023-03-26T09:40:19.366Z,12.85
2023-03-26T09:41:59.171Z,12.89
2023-03-26T09:43:38.890Z,12.87
2023-03-26T09:45:18.674Z,12.86
2023-03-26T09:46:58.439Z,12.87
2023-03-26T09:48:38.199Z,12.82
2023-03-26T09:50:17.957Z,12.81
2023-03-26T09:51:57.732Z,12.79
2023-03-26T09:53:37.496Z,12.77
2023-03-26T09:55:17.286Z,12.8
2023-03-26T09:56:57.063Z,12.82
2023-03-26T09:58:36.812Z,12.87
2023-03-26T10:00:16.583Z,12.91
2023-03-26T10:01:56.344Z,12.93
2023-03-26T10:03:36.148Z,12.96
2023-03-26T10:05:15.889Z,12.95
2023-03-26T10:06:55.661Z,12.97
2023-03-26T10:08:35.505Z,12.98
2023-03-26T10:10:15.207Z,12.97
2023-03-26T10:11:54.999Z,12.98
2023-03-26T10:13:34.748Z,13
2023-03-26T10:15:14.525Z,13.03
2023-03-26T10:16:54.286Z,13
2023-03-26T10:18:34.051Z,13.02
2023-03-26T10:20:13.817Z,13.04
2023-03-26T10:21:53.643Z,13.03
2023-03-26T10:23:33.395Z,13.07
2023-03-26T10:25:13.142Z,13.08
2023-03-26T10:26:52.915Z,13.08
2023-03-26T10:28:32.712Z,13.07
2023-03-26T10:30:12.452Z,13.1
2023-03-26T10:31:52.222Z,13.09
2023-03-26T10:33:31.993Z,13.13
2023-03-26T10:35:11.828Z,13.1
2023-03-26T10:36:51.518Z,13.14
2023-03-26T10:38:31.295Z,13.13
2023-03-26T10:40:11.076Z,13.12
2023-03-26T10:41:50.855Z,13.17
2023-03-26T10:43:30.668Z,13.16
2023-03-26T10:45:10.395Z,13.16
2023-03-26T10:46:50.151Z,13.17
2023-03-26T10:48:29.943Z,13.18
2023-03-26T10:50:09.699Z,13.17
2023-03-26T10:51:49.450Z,13.21
2023-03-26T10:53:29.298Z,13.22
2023-03-26T10:55:08.999Z,13.23
2023-03-26T10:56:48.759Z,13.21
2023-03-26T10:58:28.541Z,13.23
2023-03-26T11:00:08.314Z,13.27
2023-03-26T11:01:48.082Z,13.25
2023-03-26T11:03:27.865Z,13.27
2023-03-26T11:05:07.628Z,13.29
2023-03-26T11:06:47.406Z,13.26
2023-03-26T11:08:27.168Z,13.28
2023-03-26T11:10:06.942Z,13.31
2023-03-26T11:11:46.710Z,13.28
2023-03-26T11:13:26.481Z,13.33
2023-03-26T11:15:06.240Z,13.3
2023-03-26T11:16:46.025Z,13.34
2023-03-26T11:18:25.784Z,13.3
2023-03-26T11:20:05.577Z,13.34
2023-03-26T11:21:45.333Z,13.33
2023-03-26T11:23:25.114Z,13.37
2023-03-26T11:25:04.864Z,13.37
2023-03-26T11:26:44.647Z,13.39
2023-03-26T11:28:24.602Z,13.41
2023-03-26T11:30:04.351Z,13.39
2023-03-26T11:31:44.096Z,13.42
2023-03-26T11:33:23.941Z,13.44
2023-03-26T11:35:03.503Z,13.47
2023-03-26T11:36:43.284Z,13.45
2023-03-26T11:38:23.037Z,13.44
2023-03-26T11:40:02.803Z,13.46
2023-03-26T11:41:42.594Z,13.46
2023-03-26T11:43:22.349Z,13.49
2023-03-26T11:45:02.124Z,13.53
2023-03-26T11:46:41.886Z,13.53
2023-03-26T11:48:21.688Z,13.55
2023-03-26T11:50:01.432Z,13.54
2023-03-26T11:51:41.218Z,13.54
2023-03-26T11:53:20.959Z,13.56
2023-03-26T11:55:00.743Z,13.58
2023-03-26T11:56:40.510Z,13.61
2023-03-26T11:58:20.293Z,13.61
2023-03-26T12:00:00.076Z,13.64
2023-03-26T12:01:39.811Z,13.61
2023-03-26T12:03:19.583Z,13.64
2023-03-26T12:04:59.359Z,13.64
2023-03-26T12:06:39.126Z,13.67
2023-03-26T12:08:18.900Z,13.67
2023-03-26T12:09:58.696Z,13.68
2023-03-26T12:11:38.433Z,13.71
2023-03-26T12:13:18.213Z,13.72
2023-03-26T12:14:58.011Z,13.71
2023-03-26T12:16:37.733Z,13.72
2023-03-26T12:18:17.508Z,13.74
2023-03-26T12:19:57.289Z,13.79
2023-03-26T12:21:37.040Z,13.8
2023-03-26T12:23:16.817Z,13.79
2023-03-26T12:24:56.595Z,13.85
2023-03-26T12:26:36.354Z,13.8
2023-03-26T12:28:16.153Z,13.86
2023-03-26T12:29:55.901Z,13.89
2023-03-26T12:31:35.672Z,13.88
2023-03-26T12:33:15.433Z,13.89
2023-03-26T12:34:55.208Z,13.89
2023-03-26T12:36:35.014Z,13.91
2023-03-26T12:38:14.769Z,13.93
2023-03-26T12:39:54.513Z,13.92
2023-03-26T12:41:34.300Z,13.93
2023-03-26T12:43:51.417Z,13.96
2023-03-26T12:44:53.946Z,13.98
2023-03-26T12:46:33.603Z,14
2023-03-26T12:48:13.400Z,14.02
2023-03-26T12:49:53.152Z,14.05
2023-03-26T12:51:32.947Z,14.07
2023-03-26T12:53:12.771Z,14.07
2023-03-26T12:54:52.439Z,14.1
2023-03-26T12:56:32.217Z,14.1
2023-03-26T12:58:12.031Z,14.14
2023-03-26T12:59:51.920Z,14.12
2023-03-26T13:01:31.615Z,14.16
2023-03-26T13:03:11.310Z,14.16
2023-03-26T13:04:51.074Z,14.2
2023-03-26T13:06:30.970Z,14.18
2023-03-26T13:08:10.735Z,14.19
2023-03-26T13:09:50.382Z,14.22
2023-03-26T13:11:30.156Z,14.24
2023-03-26T13:13:09.934Z,14.28
2023-03-26T13:14:49.730Z,14.28
2023-03-26T13:16:29.481Z,14.28
2023-03-26T13:18:09.283Z,14.29
2023-03-26T13:19:49.051Z,14.32
2023-03-26T13:21:28.850Z,14.35
2023-03-26T13:23:08.540Z,14.38
2023-03-26T13:24:48.333Z,14.37
2023-03-26T13:26:28.091Z,14.39
2023-03-26T13:28:07.863Z,14.44
2023-03-26T13:29:47.623Z,14.43
2023-03-26T13:31:27.415Z,14.44
2023-03-26T13:33:07.175Z,14.45
2023-03-26T13:34:46.996Z,14.44
2023-03-26T13:36:26.715Z,14.49
2023-03-26T13:38:06.547Z,14.5
2023-03-26T13:39:46.266Z,14.51
2023-03-26T13:41:26.038Z,14.5
2023-03-26T13:43:05.814Z,14.54
2023-03-26T13:44:45.568Z,14.53
2023-03-26T13:46:25.386Z,14.57
2023-03-26T13:48:05.119Z,14.58
2023-03-26T13:49:44.897Z,14.55
2023-03-26T13:51:24.646Z,14.6
2023-03-26T13:53:04.412Z,14.59
2023-03-26T13:54:44.188Z,14.64
2023-03-26T13:56:23.964Z,14.66
2023-03-26T13:58:03.730Z,14.64
2023-03-26T13:59:43.494Z,14.65
2023-03-26T14:01:23.297Z,14.67
2023-03-26T14:03:03.040Z,14.69
2023-03-26T14:04:42.820Z,14.69
2023-03-26T14:06:22.588Z,14.71
2023-03-26T14:08:02.364Z,14.73
2023-03-26T14:09:42.129Z,14.77
2023-03-26T14:11:21.892Z,14.76
2023-03-26T14:13:01.679Z,14.77
2023-03-26T14:14:41.438Z,14.79
2023-03-26T14:16:21.211Z,14.8
2023-03-26T14:18:00.984Z,14.84
2023-03-26T14:19:40.733Z,14.86
2023-03-26T14:21:20.509Z,14.88
2023-03-26T14:23:00.281Z,14.89
2023-03-26T14:24:40.091Z,14.9
2023-03-26T14:26:19.823Z,14.92
2023-03-26T14:27:59.604Z,14.94
2023-03-26T14:29:39.360Z,14.93
2023-03-26T14:31:19.130Z,14.97
2023-03-26T14:32:58.897Z,14.98
2023-03-26T14:34:38.666Z,15.03
2023-03-26T14:36:18.428Z,15.03
2023-03-26T14:37:58.207Z,15.03
2023-03-26T14:39:37.978Z,15.04
2023-03-26T14:41:17.753Z,15.09
2023-03-26T14:42:57.550Z,15.08
2023-03-26T14:44:37.296Z,15.12
2023-03-26T14:46:17.235Z,15.13
2023-03-26T14:47:56.903Z,15.14
2023-03-26T14:49:36.601Z,15.18
2023-03-26T14:51:16.387Z,15.19
2023-03-26T14:52:56.138Z,15.21
2023-03-26T14:54:35.919Z,15.18
2023-03-26T14:56:15.685Z,15.24
2023-03-26T14:57:55.456Z,15.25
2023-03-26T14:59:35.223Z,15.26
2023-03-26T15:01:15.014Z,15.28
2023-03-26T15:02:54.766Z,15.31
2023-03-26T15:04:34.533Z,15.35
2023-03-26T15:06:14.303Z,15.36
2023-03-26T15:07:54.077Z,15.35
2023-03-26T15:09:33.871Z,15.36
2023-03-26T15:11:13.624Z,15.39
2023-03-26T15:12:53.378Z,15.39
2023-03-26T15:14:33.220Z,15.42
2023-03-26T15:16:12.929Z,15.44
2023-03-26T15:17:52.697Z,15.43
2023-03-26T15:19:32.464Z,15.44
2023-03-26T15:21:12.243Z,15.46
2023-03-26T15:22:52.080Z,15.5
2023-03-26T15:24:31.802Z,15.48
2023-03-26T15:26:11.616Z,15.51
2023-03-26T15:27:51.316Z,15.5
2023-03-26T15:29:31.080Z,15.55
2023-03-26T15:31:10.875Z,15.54
2023-03-26T15:32:50.626Z,15.56
2023-03-26T15:34:30.406Z,15.55
2023-03-26T15:36:10.163Z,15.58
2023-03-26T15:37:49.920Z,15.58
2023-03-26T15:39:29.767Z,15.58
2023-03-26T15:41:09.470Z,15.58
2023-03-26T15:42:49.242Z,15.58
2023-03-26T15:44:29.047Z,15.6
2023-03-26T15:46:08.826Z,15.61
2023-03-26T15:47:48.553Z,15.62
2023-03-26T15:49:28.328Z,15.63
2023-03-26T15:51:08.111Z,15.62
2023-03-26T15:52:47.872Z,15.64
2023-03-26T15:54:27.634Z,15.63
2023-03-26T15:56:07.415Z,15.65
2023-03-26T15:57:47.206Z,15.65
2023-03-26T15:59:26.944Z,15.64
2023-03-26T16:01:06.708Z,15.66
2023-03-26T16:02:46.486Z,15.66
2023-03-26T16:04:26.259Z,15.64
2023-03-26T16:06:06.020Z,15.66
2023-03-26T16:07:45.796Z,15.65
2023-03-26T16:09:25.622Z,15.67
2023-03-26T16:11:05.378Z,15.66
2023-03-26T16:12:45.110Z,15.7
2023-03-26T16:14:24.875Z,15.67
2023-03-26T16:16:04.670Z,15.67
2023-03-26T16:17:44.443Z,15.7
2023-03-26T16:19:24.221Z,15.68
2023-03-26T16:21:04.074Z,15.68
2023-03-26T16:22:43.737Z,15.68
2023-03-26T16:24:23.535Z,15.68
2023-03-26T16:26:03.281Z,15.67
2023-03-26T16:27:43.078Z,15.66
2023-03-26T16:29:22.816Z,15.66
2023-03-26T16:31:02.589Z,15.7
2023-03-26T16:32:42.351Z,15.68
2023-03-26T16:34:22.126Z,15.66
2023-03-26T16:36:01.909Z,15.63
2023-03-26T16:37:41.673Z,15.65
2023-03-26T16:39:21.466Z,15.64
2023-03-26T16:41:01.254Z,15.63
2023-03-26T16:42:40.976Z,15.63
2023-03-26T16:44:20.747Z,15.61
2023-03-26T16:46:00.537Z,15.61
2023-03-26T16:47:40.280Z,15.6
2023-03-26T16:49:20.056Z,15.59
2023-03-26T16:50:59.842Z,15.57
2023-03-26T16:52:39.607Z,15.59
2023-03-26T16:54:19.370Z,15.55
2023-03-26T16:55:59.142Z,15.52
2023-03-26T16:57:38.910Z,15.53
2023-03-26T16:59:18.690Z,15.52
2023-03-26T17:00:58.459Z,15.5
2023-03-26T17:02:38.225Z,15.51
2023-03-26T17:04:17.991Z,15.46
2023-03-26T17:05:57.755Z,15.47
2023-03-26T17:07:37.531Z,15.43
2023-03-26T17:09:17.298Z,15.4
2023-03-26T17:10:57.068Z,15.38
2023-03-26T17:12:36.839Z,15.36
2023-03-26T17:14:16.605Z,15.35
2023-03-26T17:15:56.374Z,15.3
2023-03-26T17:17:36.151Z,15.3
2023-03-26T17:19:15.910Z,15.27
2023-03-26T17:20:55.666Z,15.23
2023-03-26T17:22:35.429Z,15.21
2023-03-26T17:24:15.197Z,15.19
2023-03-26T17:25:54.982Z,15.21
2023-03-26T17:27:34.742Z,15.16
2023-03-26T17:29:14.512Z,15.14
2023-03-26T17:30:54.324Z,15.11
2023-03-26T17:32:34.061Z,15.08
2023-03-26T17:34:13.812Z,15.03
2023-03-26T17:35:53.597Z,15.02
2023-03-26T17:37:33.355Z,15.03
2023-03-26T17:39:13.127Z,14.97
2023-03-26T17:40:52.889Z,14.94
2023-03-26T17:42:32.659Z,14.94
2023-03-26T17:44:12.432Z,14.92
2023-03-26T17:45:52.189Z,14.89
2023-03-26T17:47:31.948Z,14.88
2023-03-26T17:49:11.718Z,14.83
2023-03-26T17:50:51.485Z,14.83
2023-03-26T17:52:31.254Z,14.75
2023-03-26T17:54:11.017Z,14.7
2023-03-26T17:55:50.790Z,14.66
2023-03-26T17:57:30.559Z,14.64
2023-03-26T17:59:10.332Z,14.57
2023-03-26T18:00:50.087Z,14.55
2023-03-26T18:02:29.871Z,14.52
2023-03-26T18:04:09.624Z,14.46
2023-03-26T18:05:49.401Z,14.43
2023-03-26T18:07:29.155Z,14.41
2023-03-26T18:09:09.183Z,14.36
2023-03-26T18:10:48.690Z,14.31
2023-03-26T18:12:28.455Z,14.28
2023-03-26T18:14:08.243Z,14.24
2023-03-26T18:15:48.003Z,14.24
2023-03-26T18:17:27.849Z,14.17
2023-03-26T18:19:07.550Z,14.14
2023-03-26T18:20:47.308Z,14.14
2023-03-26T18:22:27.074Z,14.08
2023-03-26T18:24:06.847Z,14.08
2023-03-26T18:25:46.605Z,14.05
2023-03-26T18:27:26.380Z,14.02
2023-03-26T18:29:06.128Z,13.97
2023-03-26T18:30:45.899Z,13.96
2023-03-26T18:32:25.685Z,13.91
2023-03-26T18:34:05.461Z,13.9
2023-03-26T18:35:45.208Z,13.87
2023-03-26T18:37:24.979Z,13.86
2023-03-26T18:39:04.793Z,13.8
2023-03-26T18:40:44.589Z,13.78
2023-03-26T18:42:24.282Z,13.76
2023-03-26T18:44:04.088Z,13.73
2023-03-26T18:45:43.811Z,13.7
2023-03-26T18:47:23.580Z,13.7
2023-03-26T18:49:03.484Z,13.66
2023-03-26T18:50:43.100Z,13.65
2023-03-26T18:52:22.879Z,13.64
2023-03-26T18:54:02.643Z,13.61
2023-03-26T18:55:42.421Z,13.58
2023-03-26T18:57:22.203Z,13.54
2023-03-26T18:59:02.038Z,13.53
2023-03-26T19:00:41.730Z,13.5
2023-03-26T19:02:21.487Z,13.51
2023-03-26T19:04:01.249Z,13.46
2023-03-26T19:05:41.020Z,13.45
2023-03-26T19:07:20.806Z,13.45
2023-03-26T19:09:00.563Z,13.42
2023-03-26T19:10:40.334Z,13.41
2023-03-26T19:12:20.088Z,13.37
2023-03-26T19:13:59.899Z,13.34
2023-03-26T19:15:39.695Z,13.32
2023-03-26T19:17:19.388Z,13.29
2023-03-26T19:18:59.153Z,13.28
2023-03-26T19:20:38.931Z,13.27
2023-03-26T19:22:18.693Z,13.24
2023-03-26T19:23:58.474Z,13.23
2023-03-26T19:25:38.225Z,13.2
2023-03-26T19:27:17.984Z,13.17
2023-03-26T19:28:57.762Z,13.16
2023-03-26T19:30:37.533Z,13.13
2023-03-26T19:32:17.297Z,13.13
2023-03-26T19:33:57.061Z,13.12
2023-03-26T19:35:36.828Z,13.07
2023-03-26T19:37:16.615Z,13.06
2023-03-26T19:38:56.551Z,13.05
2023-03-26T19:40:36.312Z,13.01
2023-03-26T19:42:16.123Z,12.99
2023-03-26T19:43:55.868Z,12.97
2023-03-26T19:45:35.681Z,12.97
2023-03-26T19:47:15.378Z,12.95
2023-03-26T19:48:55.095Z,12.93
2023-03-26T19:50:34.986Z,12.91
2023-03-26T19:52:14.509Z,12.89
2023-03-26T19:53:54.474Z,12.89
2023-03-26T19:55:34.216Z,12.85
2023-03-26T19:57:13.991Z,12.83
2023-03-26T19:58:53.760Z,12.81
2023-03-26T20:00:33.492Z,12.81
2023-03-26T20:02:13.195Z,12.8
2023-03-26T20:03:53.049Z,12.78
2023-03-26T20:05:32.860Z,12.74
2023-03-26T20:07:12.521Z,12.74
2023-03-26T20:08:52.361Z,12.7
2023-03-26T20:10:32.171Z,12.7
2023-03-26T20:12:11.935Z,12.68
2023-03-26T20:13:51.693Z,12.65
2023-03-26T20:15:31.461Z,12.64
2023-03-26T20:17:11.204Z,12.63
2023-03-26T20:18:51.057Z,12.6
2023-03-26T20:20:30.801Z,12.57
2023-03-26T20:22:10.467Z,12.56
2023-03-26T20:23:50.301Z,12.55
2023-03-26T20:25:29.941Z,12.53
2023-03-26T20:27:09.810Z,12.52
2023-03-26T20:28:49.542Z,12.49
2023-03-26T20:30:29.302Z,12.45
2023-03-26T20:32:09.113Z,12.44
2023-03-26T20:33:48.815Z,12.43
2023-03-26T20:35:28.589Z,12.39
2023-03-26T20:37:08.367Z,12.38
2023-03-26T20:38:48.070Z,12.35
2023-03-26T20:40:27.755Z,12.35
2023-03-26T20:42:07.670Z,12.34
2023-03-26T20:43:47.297Z,12.32
2023-03-26T20:45:27.060Z,12.3
2023-03-26T20:47:06.853Z,12.29
2023-03-26T20:48:46.590Z,12.25
2023-03-26T20:50:26.359Z,12.25
2023-03-26T20:52:06.253Z,12.22
2023-03-26T20:53:45.950Z,12.2
2023-03-26T20:55:25.667Z,12.16
2023-03-26T20:57:05.448Z,12.14
2023-03-26T20:58:45.204Z,12.14
2023-03-26T21:00:24.981Z,12.11
2023-03-26T21:02:04.738Z,12.09
2023-03-26T21:03:44.517Z,12.08
2023-03-26T21:05:24.330Z,12.03
2023-03-26T21:07:04.060Z,12.05
2023-03-26T21:08:43.800Z,12.01
2023-03-26T21:10:23.571Z,11.98
2023-03-26T21:12:03.346Z,11.95
2023-03-26T21:13:43.114Z,11.95
2023-03-26T21:15:22.888Z,11.92
2023-03-26T21:17:02.683Z,11.9
2023-03-26T21:18:42.402Z,11.87
2023-03-26T21:20:22.176Z,11.86
2023-03-26T21:22:01.949Z,11.85
2023-03-26T21:23:41.709Z,11.81
2023-03-26T21:25:21.521Z,11.81
2023-03-26T21:27:01.338Z,11.76
2023-03-26T21:28:41.007Z,11.74